Time;durP1;ratioP1;P1;durP2;ratioP2;P2;SDS_P1;SDS_P2;PMS_P1;PMS_P2;Temp;Humidity;BMP_temperature;BMP_pressure;BME280_temperature;BME280_humidity;BME280_pressure;Samples;Min_cycle;Max_cycle;Signal;HPM_P1;HPM_P2
2021/03/13 00:00:50;;;;;;;5.22;3.40;;;4.40;40.10;;;;;;5114165;28;20024;-67
2021/03/13 00:03:16;;;;;;;6.25;3.50;;;4.40;40.20;;;;;;5096267;28;20028;-68
2021/03/13 00:05:44;;;;;;;5.53;3.60;;;4.40;40.20;;;;;;5114534;28;20020;-68
2021/03/13 00:08:11;;;;;;;6.93;3.40;;;4.40;40.20;;;;;;5114199;28;20044;-68
2021/03/13 00:10:39;;;;;;;8.32;3.28;;;4.40;40.40;;;;;;5078984;28;20027;-68
2021/03/13 00:13:06;;;;;;;6.18;3.33;;;4.40;40.40;;;;;;5113583;28;20023;-69
2021/03/13 00:15:32;;;;;;;5.07;3.70;;;4.40;40.40;;;;;;5096074;28;20068;-69
2021/03/13 00:17:59;;;;;;;4.53;3.35;;;4.30;40.50;;;;;;5096049;28;20027;-68
2021/03/13 00:20:27;;;;;;;7.32;3.13;;;4.40;40.50;;;;;;5113777;28;20028;-68
2021/03/13 00:22:54;;;;;;;4.60;2.90;;;4.30;40.50;;;;;;5095747;28;20026;-68
2021/03/13 00:25:21;;;;;;;5.07;3.67;;;4.40;40.60;;;;;;5113814;28;20035;-68
2021/03/13 00:27:48;;;;;;;5.47;3.30;;;4.30;40.60;;;;;;5078748;28;20072;-68
2021/03/13 00:30:20;;;;;;;7.88;3.40;;;4.30;40.60;;;;;;5095462;28;20490;-68
2021/03/13 00:32:48;;;;;;;4.22;3.30;;;4.30;40.60;;;;;;5078987;28;20031;-68
2021/03/13 00:35:15;;;;;;;6.40;3.40;;;4.30;40.70;;;;;;5078800;28;20023;-68
2021/03/13 00:37:42;;;;;;;6.35;3.05;;;4.30;40.70;;;;;;5095460;28;20122;-67
2021/03/13 00:40:11;;;;;;;5.28;3.50;;;4.30;40.70;;;;;;5095369;28;20110;-68
2021/03/13 00:42:37;;;;;;;5.40;3.45;;;4.30;40.70;;;;;;5113708;28;20092;-68
2021/03/13 00:45:05;;;;;;;6.97;3.90;;;4.30;40.70;;;;;;5078481;28;20072;-68
2021/03/13 00:47:31;;;;;;;5.03;3.40;;;4.30;40.60;;;;;;5095881;28;20035;-68
2021/03/13 00:49:57;;;;;;;6.40;3.92;;;4.20;40.60;;;;;;5107398;28;20035;-68
2021/03/13 00:52:23;;;;;;;6.72;3.80;;;4.30;40.60;;;;;;5083955;28;20161;-68
2021/03/13 00:54:49;;;;;;;7.50;3.60;;;4.30;40.50;;;;;;5092901;28;20024;-68
2021/03/13 00:57:16;;;;;;;5.20;3.60;;;4.20;40.40;;;;;;5092835;28;20031;-68
2021/03/13 00:59:42;;;;;;;6.90;3.67;;;4.20;40.60;;;;;;5074816;28;20024;-69
2021/03/13 01:02:08;;;;;;;6.30;3.60;;;4.20;40.50;;;;;;5074979;28;20091;-69
2021/03/13 01:04:34;;;;;;;7.32;3.83;;;4.20;40.60;;;;;;5092851;28;20043;-68
2021/03/13 01:07:00;;;;;;;9.15;3.83;;;4.20;40.50;;;;;;5074995;28;20032;-68
2021/03/13 01:09:26;;;;;;;5.28;3.72;;;4.20;40.60;;;;;;5074286;28;20047;-68
2021/03/13 01:11:54;;;;;;;5.97;4.07;;;4.20;40.60;;;;;;5074416;28;20028;-68
2021/03/13 01:14:21;;;;;;;5.57;3.42;;;4.20;40.70;;;;;;5109005;28;20028;-67
2021/03/13 01:16:48;;;;;;;4.63;3.58;;;4.20;40.60;;;;;;5058273;28;20379;-68
2021/03/13 01:19:15;;;;;;;6.72;3.92;;;4.20;40.80;;;;;;5091711;28;20372;-68
2021/03/13 01:21:42;;;;;;;7.82;3.75;;;4.20;40.80;;;;;;5074764;28;20076;-69
2021/03/13 01:24:11;;;;;;;5.78;3.85;;;4.20;40.80;;;;;;5074738;28;20020;-69
2021/03/13 01:26:40;;;;;;;8.45;4.78;;;4.20;40.80;;;;;;5095433;28;20357;-68
2021/03/13 01:29:09;;;;;;;7.07;3.72;;;4.20;40.90;;;;;;5079096;28;20369;-68
2021/03/13 01:31:47;;;;;;;6.63;4.10;;;4.20;40.90;;;;;;5063880;28;20042;-68
2021/03/13 01:34:15;;;;;;;11.90;4.53;;;4.20;40.90;;;;;;5078479;28;20032;-68
2021/03/13 01:36:50;;;;;;;8.85;4.45;;;4.20;41.00;;;;;;5078570;28;20407;-68
2021/03/13 01:39:16;;;;;;;8.57;4.40;;;4.20;41.20;;;;;;5096828;28;20086;-68
2021/03/13 01:41:42;;;;;;;7.50;4.55;;;4.20;41.20;;;;;;5078711;28;20028;-68
2021/03/13 01:44:08;;;;;;;7.63;4.10;;;4.20;41.30;;;;;;5078433;28;20134;-68
2021/03/13 01:46:34;;;;;;;8.35;4.60;;;4.20;41.40;;;;;;5097061;28;20039;-68
2021/03/13 01:49:01;;;;;;;8.85;4.72;;;4.20;41.50;;;;;;5078163;28;20024;-68
2021/03/13 01:51:31;;;;;;;6.78;4.57;;;4.20;41.50;;;;;;5101460;28;20114;-68
2021/03/13 01:54:03;;;;;;;7.60;4.45;;;4.20;41.70;;;;;;5084423;28;20036;-68
2021/03/13 01:56:33;;;;;;;8.50;4.47;;;4.20;41.70;;;;;;5061819;28;20020;-67
2021/03/13 01:59:00;;;;;;;8.23;4.20;;;4.10;41.70;;;;;;5078322;28;20469;-68
2021/03/13 02:01:39;;;;;;;7.15;4.45;;;4.10;41.70;;;;;;5096438;28;20020;-68
2021/03/13 02:04:06;;;;;;;12.57;5.28;;;4.10;41.80;;;;;;5078092;28;20097;-68
2021/03/13 02:06:32;;;;;;;9.55;5.15;;;4.10;41.80;;;;;;5061618;28;20358;-68
2021/03/13 02:09:38;;;;;;;9.80;4.97;;;4.10;41.90;;;;;;5095678;28;20048;-68
2021/03/13 02:12:33;;;;;;;7.85;4.47;;;4.10;42.00;;;;;;5111683;28;20034;-68
2021/03/13 02:15:02;;;;;;;7.03;4.35;;;4.10;42.10;;;;;;5064782;28;20055;-68
2021/03/13 02:17:52;;;;;;;11.48;4.75;;;4.10;42.20;;;;;;5078119;28;20024;-68
2021/03/13 02:20:54;;;;;;;7.50;4.47;;;4.10;42.20;;;;;;5077851;28;20058;-69
2021/03/13 02:23:23;;;;;;;6.68;4.32;;;4.10;42.40;;;;;;5077881;28;20024;-69
2021/03/13 02:26:30;;;;;;;7.72;4.57;;;4.00;42.40;;;;;;5080598;28;20070;-69
2021/03/13 02:29:28;;;;;;;8.18;4.32;;;4.00;42.40;;;;;;5060072;28;20050;-69
2021/03/13 02:32:02;;;;;;;8.55;4.20;;;4.10;42.60;;;;;;5077635;28;20032;-69
2021/03/13 02:34:31;;;;;;;9.35;5.28;;;4.00;42.60;;;;;;5095795;28;20032;-69
2021/03/13 02:37:04;;;;;;;9.32;4.85;;;4.00;42.60;;;;;;5076869;28;20555;-68
2021/03/13 02:39:36;;;;;;;8.07;4.97;;;4.00;42.70;;;;;;5093702;28;20476;-69
2021/03/13 02:42:07;;;;;;;8.85;4.90;;;4.00;42.80;;;;;;5077473;28;20026;-68
2021/03/13 02:44:36;;;;;;;7.85;4.65;;;4.00;42.90;;;;;;5077671;28;20491;-69
2021/03/13 02:47:12;;;;;;;8.88;4.97;;;4.00;42.90;;;;;;5077286;28;20032;-68
2021/03/13 02:49:48;;;;;;;8.25;4.80;;;4.00;42.90;;;;;;5077328;28;20380;-68
2021/03/13 02:52:21;;;;;;;7.05;4.38;;;4.00;43.00;;;;;;5100527;28;20027;-69
2021/03/13 02:54:52;;;;;;;9.65;5.28;;;4.10;43.20;;;;;;5084121;28;20118;-69
2021/03/13 02:57:21;;;;;;;7.95;5.28;;;4.00;43.10;;;;;;5093549;28;20039;-69
2021/03/13 02:59:48;;;;;;;8.35;4.97;;;4.00;43.20;;;;;;5076966;28;20035;-69
2021/03/13 03:02:19;;;;;;;7.90;4.40;;;4.00;43.30;;;;;;5060884;28;20115;-69
2021/03/13 03:04:50;;;;;;;8.00;4.95;;;4.00;43.40;;;;;;5077328;28;20039;-70
2021/03/13 03:07:17;;;;;;;7.88;4.82;;;4.00;43.40;;;;;;5060370;28;20047;-69
2021/03/13 03:09:45;;;;;;;7.78;4.93;;;4.00;43.40;;;;;;5110689;28;20130;-69
2021/03/13 03:12:13;;;;;;;7.15;4.40;;;4.00;43.50;;;;;;5093932;28;20028;-69
2021/03/13 03:14:47;;;;;;;7.63;4.88;;;4.00;43.50;;;;;;5077162;28;20032;-70
2021/03/13 03:17:14;;;;;;;9.35;4.80;;;4.00;43.60;;;;;;5060064;28;20020;-69
2021/03/13 03:19:45;;;;;;;8.55;4.78;;;4.00;43.60;;;;;;5076742;28;20028;-68
2021/03/13 03:22:15;;;;;;;9.35;5.07;;;4.00;43.60;;;;;;5076769;28;20039;-68
2021/03/13 03:24:44;;;;;;;8.95;5.07;;;4.00;43.60;;;;;;5097273;28;20373;-68
2021/03/13 03:27:11;;;;;;;7.53;4.85;;;4.00;43.60;;;;;;5085525;28;20034;-67
2021/03/13 03:29:41;;;;;;;7.95;4.72;;;4.00;43.60;;;;;;5076395;28;20039;-68
2021/03/13 03:32:10;;;;;;;9.30;5.03;;;4.00;43.60;;;;;;5076392;28;20024;-68
2021/03/13 03:34:36;;;;;;;7.15;4.80;;;3.90;43.60;;;;;;5076638;28;20115;-69
2021/03/13 03:37:05;;;;;;;8.43;4.78;;;3.90;43.60;;;;;;5076798;28;20039;-68
2021/03/13 03:39:33;;;;;;;8.60;4.93;;;4.00;43.80;;;;;;5093027;28;20036;-68
2021/03/13 03:42:02;;;;;;;8.15;5.32;;;3.90;43.70;;;;;;5093079;28;20425;-67
2021/03/13 03:44:38;;;;;;;11.02;5.53;;;3.90;43.70;;;;;;5076570;28;20027;-69
2021/03/13 03:47:10;;;;;;;8.45;5.15;;;3.90;43.80;;;;;;5092386;28;20525;-69
2021/03/13 03:49:40;;;;;;;8.20;5.03;;;3.90;43.90;;;;;;5074917;28;20422;-67
2021/03/13 03:52:17;;;;;;;8.48;5.03;;;3.90;43.90;;;;;;5079325;28;21467;-68
2021/03/13 03:54:44;;;;;;;8.18;5.15;;;3.90;43.90;;;;;;5069232;28;20029;-68
2021/03/13 03:57:12;;;;;;;9.82;6.10;;;3.90;43.90;;;;;;5094085;28;20024;-68
2021/03/13 03:59:41;;;;;;;9.02;5.30;;;3.90;44.60;;;;;;5076033;28;20035;-68
2021/03/13 04:02:07;;;;;;;11.30;5.68;;;3.90;44.00;;;;;;5059265;28;20027;-68
2021/03/13 04:04:34;;;;;;;8.73;5.05;;;3.90;44.10;;;;;;5109834;28;20115;-68
2021/03/13 04:07:00;;;;;;;8.93;5.13;;;3.90;44.00;;;;;;5109391;28;20494;-68
2021/03/13 04:09:27;;;;;;;8.90;5.78;;;3.90;44.10;;;;;;5108993;28;20052;-69
2021/03/13 04:11:55;;;;;;;8.82;5.82;;;3.90;44.20;;;;;;5109908;28;20043;-68
2021/03/13 04:14:22;;;;;;;8.45;5.60;;;3.90;44.20;;;;;;5093542;28;20103;-68
2021/03/13 04:16:49;;;;;;;8.88;5.80;;;3.90;44.20;;;;;;5109732;28;20027;-68
2021/03/13 04:19:15;;;;;;;8.45;5.10;;;3.90;44.30;;;;;;5075841;28;20028;-68
2021/03/13 04:21:42;;;;;;;9.90;5.55;;;3.90;44.30;;;;;;5093994;28;20062;-67
2021/03/13 04:24:11;;;;;;;9.60;5.70;;;3.90;44.40;;;;;;5109259;28;20028;-67
2021/03/13 04:26:38;;;;;;;12.75;6.30;;;3.90;44.40;;;;;;5093866;28;20480;-67
2021/03/13 04:29:05;;;;;;;11.27;6.63;;;3.90;44.40;;;;;;5092190;28;20035;-70
2021/03/13 04:31:32;;;;;;;11.45;6.50;;;3.90;44.50;;;;;;5058412;28;20058;-70
2021/03/13 04:34:01;;;;;;;10.43;6.32;;;3.90;44.50;;;;;;5093369;28;20122;-70
2021/03/13 04:36:28;;;;;;;9.35;6.00;;;3.90;44.50;;;;;;5091997;28;20028;-69
2021/03/13 04:38:57;;;;;;;10.20;6.40;;;3.90;44.60;;;;;;5075529;28;20504;-69
2021/03/13 04:41:25;;;;;;;9.45;6.05;;;3.90;44.70;;;;;;5091951;28;20021;-69
2021/03/13 04:43:53;;;;;;;9.77;5.85;;;3.90;44.70;;;;;;5075281;28;20559;-69
2021/03/13 04:46:20;;;;;;;8.38;5.63;;;3.90;44.80;;;;;;5109045;28;20044;-69
2021/03/13 04:48:47;;;;;;;9.63;6.05;;;3.90;44.80;;;;;;5108838;28;20065;-69
2021/03/13 04:51:17;;;;;;;10.52;6.05;;;3.90;44.80;;;;;;5074852;28;20035;-69
2021/03/13 04:53:44;;;;;;;9.70;5.38;;;3.90;44.90;;;;;;5113893;27;20031;-69
2021/03/13 04:56:11;;;;;;;9.18;5.68;;;3.90;44.80;;;;;;5117996;27;20016;-69
2021/03/13 04:58:37;;;;;;;11.88;6.03;;;3.90;44.80;;;;;;5108879;28;20027;-69
2021/03/13 05:01:03;;;;;;;9.18;5.88;;;3.90;44.90;;;;;;5074448;28;20028;-70
2021/03/13 05:03:29;;;;;;;9.15;5.35;;;3.90;45.50;;;;;;5119583;27;20023;-69
2021/03/13 05:05:55;;;;;;;8.85;6.30;;;3.90;45.00;;;;;;5060479;28;20123;-69
2021/03/13 05:08:21;;;;;;;10.40;5.80;;;3.90;45.00;;;;;;5108304;28;20093;-69
2021/03/13 05:10:48;;;;;;;12.23;6.18;;;3.90;45.00;;;;;;5092677;28;20039;-70
2021/03/13 05:13:14;;;;;;;9.85;6.03;;;3.90;45.10;;;;;;5092754;28;20109;-69
2021/03/13 05:15:40;;;;;;;7.68;5.90;;;3.90;45.10;;;;;;5092894;28;20078;-69
2021/03/13 05:18:06;;;;;;;11.68;6.40;;;3.90;45.00;;;;;;5091564;28;20020;-69
2021/03/13 05:20:32;;;;;;;9.55;5.68;;;3.90;45.20;;;;;;5074673;28;20028;-69
2021/03/13 05:22:58;;;;;;;10.70;5.53;;;3.90;45.20;;;;;;5108534;28;20028;-69
2021/03/13 05:25:24;;;;;;;9.38;5.70;;;3.90;45.10;;;;;;5092739;28;20028;-68
2021/03/13 05:27:50;;;;;;;10.07;5.70;;;3.90;45.20;;;;;;5092431;28;20038;-68
2021/03/13 05:30:16;;;;;;;9.38;6.22;;;4.00;45.30;;;;;;5092477;28;20063;-68
2021/03/13 05:32:42;;;;;;;9.25;6.20;;;3.90;45.30;;;;;;5092591;28;20024;-68
2021/03/13 05:35:10;;;;;;;10.50;6.15;;;3.90;45.30;;;;;;5057589;28;20040;-69
2021/03/13 05:37:37;;;;;;;10.32;6.20;;;3.90;45.30;;;;;;5092695;28;20031;-68
2021/03/13 05:40:04;;;;;;;11.15;6.45;;;3.90;45.40;;;;;;5074696;28;20028;-68
2021/03/13 05:42:31;;;;;;;8.20;5.50;;;3.90;45.40;;;;;;5092307;28;20076;-69
2021/03/13 05:44:58;;;;;;;9.20;6.35;;;3.90;45.40;;;;;;5092333;28;20495;-68
2021/03/13 05:47:25;;;;;;;10.25;6.32;;;4.00;45.50;;;;;;5092337;28;20020;-68
2021/03/13 05:50:08;;;;;;;10.05;6.20;;;4.00;45.50;;;;;;5074186;28;20082;-68
2021/03/13 05:52:36;;;;;;;10.25;5.97;;;4.00;45.50;;;;;;5108198;28;20035;-69
2021/03/13 05:55:03;;;;;;;11.60;6.28;;;4.00;45.50;;;;;;5065514;28;20028;-68
2021/03/13 05:57:31;;;;;;;11.57;6.00;;;4.00;45.50;;;;;;5098427;28;20012;-69
2021/03/13 05:59:57;;;;;;;8.77;5.80;;;4.00;45.60;;;;;;5103995;28;20023;-70
2021/03/13 06:02:24;;;;;;;9.00;6.03;;;4.00;45.50;;;;;;5075697;28;20086;-69
2021/03/13 06:04:51;;;;;;;12.68;6.88;;;4.00;45.60;;;;;;5113107;28;20039;-70
2021/03/13 06:07:24;;;;;;;9.50;5.97;;;4.00;45.70;;;;;;5083038;28;20500;-69
2021/03/13 06:09:54;;;;;;;10.07;5.93;;;4.00;45.80;;;;;;5088525;28;20119;-69
2021/03/13 06:12:22;;;;;;;10.80;6.43;;;4.00;45.80;;;;;;5093774;28;20028;-70
2021/03/13 06:14:48;;;;;;;12.70;6.25;;;4.00;45.80;;;;;;5111500;28;20027;-70
2021/03/13 06:17:16;;;;;;;9.85;6.38;;;4.00;45.80;;;;;;5077766;28;20127;-71
2021/03/13 06:19:53;;;;;;;9.95;5.75;;;4.00;45.90;;;;;;5117366;27;20361;-70
2021/03/13 06:22:40;;;;;;;9.68;5.85;;;4.00;47.60;;;;;;5100014;28;20065;-70
2021/03/13 06:25:19;;;;;;;9.55;6.40;;;4.10;47.80;;;;;;5077532;28;20036;-70
2021/03/13 06:27:47;;;;;;;12.05;6.38;;;4.10;47.60;;;;;;5077797;28;20031;-70
2021/03/13 06:30:14;;;;;;;10.50;5.95;;;4.10;47.30;;;;;;5095678;28;20123;-69
2021/03/13 06:32:41;;;;;;;9.43;6.20;;;4.10;47.10;;;;;;5111340;28;20023;-72
2021/03/13 06:35:24;;;;;;;11.50;6.80;;;4.20;47.10;;;;;;5077435;28;20035;-70
2021/03/13 06:37:53;;;;;;;10.07;6.20;;;4.20;47.00;;;;;;5095469;28;20156;-69
2021/03/13 06:40:48;;;;;;;10.88;5.93;;;4.10;46.90;;;;;;5096271;28;20031;-69
2021/03/13 06:43:24;;;;;;;13.00;6.25;;;4.20;46.90;;;;;;5078440;28;20032;-69
2021/03/13 06:46:01;;;;;;;8.75;5.63;;;4.20;46.80;;;;;;5095352;28;20020;-71
2021/03/13 06:48:38;;;;;;;10.65;6.60;;;4.20;46.80;;;;;;5079664;28;20031;-69
2021/03/13 06:51:15;;;;;;;9.35;5.97;;;4.20;46.80;;;;;;5086663;28;20027;-72
2021/03/13 06:53:41;;;;;;;8.43;5.72;;;4.10;46.80;;;;;;5095525;28;20098;-69
2021/03/13 06:56:09;;;;;;;9.13;5.93;;;4.20;46.80;;;;;;5077962;28;20422;-75
2021/03/13 06:58:36;;;;;;;13.85;6.80;;;4.20;46.80;;;;;;5114381;27;20035;-75
2021/03/13 07:01:06;;;;;;;11.55;6.22;;;4.20;46.80;;;;;;5107817;28;20031;-74
2021/03/13 07:03:33;;;;;;;10.93;6.35;;;4.20;46.80;;;;;;5095561;28;20024;-76
2021/03/13 07:05:59;;;;;;;10.32;6.10;;;4.20;46.90;;;;;;5077207;28;20028;-77
2021/03/13 07:08:32;;;;;;;8.65;5.45;;;4.20;46.70;;;;;;5104412;28;20048;-75
2021/03/13 07:11:10;;;;;;;11.13;6.18;;;4.20;46.80;;;;;;5116047;28;20035;-71
2021/03/13 07:13:38;;;;;;;11.20;6.57;;;4.20;46.80;;;;;;5115741;28;20417;-67
2021/03/13 07:16:27;;;;;;;9.88;5.93;;;4.20;46.80;;;;;;5094404;28;20039;-85
2021/03/13 07:19:11;;;;;;;10.30;6.28;;;4.30;47.00;;;;;;5105529;28;20136;-84
2021/03/13 07:21:40;;;;;;;22.55;12.50;;;4.30;46.80;;;;;;5076225;28;20028;-81
2021/03/13 07:24:08;;;;;;;24.58;13.85;;;4.30;47.20;;;;;;5101150;28;20558;-82
2021/03/13 07:26:43;;;;;;;30.95;16.75;;;4.30;48.40;;;;;;5094246;28;20034;-81
2021/03/13 07:29:11;;;;;;;34.15;18.98;;;4.30;49.70;;;;;;5075744;28;20030;-76
2021/03/13 07:31:40;;;;;;;43.67;23.02;;;4.30;51.40;;;;;;5094477;28;20085;-78
2021/03/13 07:34:20;;;;;;;40.45;21.38;;;4.30;52.40;;;;;;5076741;28;20110;-79
2021/03/13 07:36:52;;;;;;;42.50;21.67;;;4.40;53.60;;;;;;5094834;28;20043;-76
2021/03/13 07:39:23;;;;;;;43.20;21.05;;;4.40;54.40;;;;;;5094710;28;20032;-83
2021/03/13 07:42:10;;;;;;;38.08;20.67;;;4.50;55.10;;;;;;5094995;28;20024;-83
2021/03/13 07:44:36;;;;;;;35.65;20.77;;;4.50;55.60;;;;;;5094694;28;20028;-84
2021/03/13 07:47:02;;;;;;;30.73;18.45;;;4.60;56.00;;;;;;5059725;28;20058;-84
2021/03/13 07:49:32;;;;;;;31.95;18.02;;;4.70;56.40;;;;;;5076890;28;20399;-84
2021/03/13 07:51:59;;;;;;;32.58;17.70;;;4.70;56.60;;;;;;5094482;28;20472;-83
2021/03/13 07:54:29;;;;;;;29.98;16.70;;;4.80;57.00;;;;;;5094546;28;20024;-83
2021/03/13 07:56:56;;;;;;;30.10;16.85;;;4.80;57.20;;;;;;5076048;28;20051;-85
2021/03/13 07:59:44;;;;;;;29.42;16.40;;;4.90;57.40;;;;;;5092582;28;20052;-85
2021/03/13 08:02:28;;;;;;;28.45;15.65;;;4.90;57.60;;;;;;5075804;28;20031;-85
2021/03/13 08:05:08;;;;;;;26.75;14.70;;;4.90;57.80;;;;;;5076077;28;20024;-83
2021/03/13 08:07:57;;;;;;;23.67;14.35;;;5.00;57.90;;;;;;5094104;28;20089;-84
2021/03/13 08:10:45;;;;;;;24.83;14.05;;;5.00;58.10;;;;;;5094204;28;20027;-82
2021/03/13 08:13:37;;;;;;;25.40;14.70;;;5.10;58.30;;;;;;5093925;28;20039;-85
2021/03/13 08:16:07;;;;;;;24.52;13.50;;;5.10;58.50;;;;;;5093606;28;20032;-80
2021/03/13 08:18:45;;;;;;;22.33;12.73;;;5.10;58.50;;;;;;5076391;28;20031;-80
2021/03/13 08:21:17;;;;;;;20.38;12.38;;;5.10;58.40;;;;;;5093892;28;20020;-80
2021/03/13 08:23:51;;;;;;;20.08;11.43;;;5.10;58.40;;;;;;5093426;28;20046;-78
2021/03/13 08:26:19;;;;;;;21.38;12.23;;;5.20;58.30;;;;;;5093573;28;20047;-77
2021/03/13 08:28:48;;;;;;;19.42;10.60;;;5.20;58.30;;;;;;5091998;28;20020;-83
2021/03/13 08:33:50;;;;;;;19.05;9.85;;;5.20;58.20;;;;;;5093773;28;20038;-77
2021/03/13 08:36:17;;;;;;;16.20;9.45;;;5.30;58.00;;;;;;5074962;28;20114;-85
2021/03/13 08:38:55;;;;;;;15.27;9.82;;;5.30;57.70;;;;;;5109305;28;20036;-82
2021/03/13 08:41:42;;;;;;;12.07;7.95;;;5.30;57.20;;;;;;5075304;28;20135;-83
2021/03/13 08:44:10;;;;;;;;;;;5.30;56.90;;;;;;5065346;28;20067;-85
2021/03/13 08:46:45;;;;;;;15.05;7.70;;;5.30;56.80;;;;;;5094242;28;19904;-87
2021/03/13 08:49:13;;;;;;;14.43;7.50;;;5.30;56.30;;;;;;5110193;28;20028;-91
2021/03/13 08:51:39;;;;;;;12.60;6.90;;;5.30;56.20;;;;;;5078233;28;20067;-87
2021/03/13 08:54:05;;;;;;;12.27;7.57;;;5.30;56.10;;;;;;5095709;28;20024;-91
2021/03/13 08:56:47;;;;;;;12.75;7.05;;;5.20;55.90;;;;;;5093862;28;20028;-80
2021/03/13 08:59:18;;;;;;;10.65;6.22;;;5.20;55.40;;;;;;5093264;28;20451;-82
2021/03/13 09:02:05;;;;;;;10.40;6.82;;;5.30;55.20;;;;;;5092929;28;20031;-71
2021/03/13 09:04:33;;;;;;;9.60;7.15;;;5.30;55.00;;;;;;5092423;28;20031;-71
2021/03/13 09:07:00;;;;;;;11.75;7.07;;;5.20;54.70;;;;;;5093501;28;20030;-71
2021/03/13 09:09:28;;;;;;;11.40;6.88;;;5.30;54.50;;;;;;5087491;28;20051;-72
2021/03/13 09:12:00;;;;;;;10.57;7.05;;;5.30;54.40;;;;;;5052945;28;20029;-72
2021/03/13 09:14:26;;;;;;;12.02;6.72;;;5.30;54.20;;;;;;5052798;28;20104;-72
2021/03/13 09:16:53;;;;;;;12.20;6.50;;;5.30;54.00;;;;;;5051400;28;20029;-71
2021/03/13 09:19:22;;;;;;;11.43;6.20;;;5.30;54.00;;;;;;5051275;28;20099;-72
2021/03/13 09:21:54;;;;;;;10.13;6.45;;;5.30;53.80;;;;;;5052529;28;20473;-72
2021/03/13 09:24:25;;;;;;;10.05;6.03;;;5.30;53.70;;;;;;5052575;28;20020;-70
2021/03/13 09:26:56;;;;;;;9.65;6.30;;;5.30;54.10;;;;;;5051343;28;20500;-72
2021/03/13 09:29:31;;;;;;;9.55;6.28;;;5.30;53.50;;;;;;5051430;28;20032;-74
2021/03/13 09:31:59;;;;;;;9.73;6.63;;;5.30;53.40;;;;;;5052625;28;20032;-73
2021/03/13 09:34:25;;;;;;;12.65;6.97;;;5.30;53.30;;;;;;5052428;28;20116;-73
2021/03/13 09:36:51;;;;;;;9.05;6.25;;;5.30;52.60;;;;;;5051206;28;20053;-73
2021/03/13 09:39:26;;;;;;;8.70;6.07;;;5.30;53.30;;;;;;5052573;28;20029;-72
2021/03/13 09:42:24;;;;;;;9.85;6.38;;;5.30;53.90;;;;;;5051178;28;20068;-72
2021/03/13 09:45:07;;;;;;;8.20;5.70;;;5.40;54.40;;;;;;5052595;28;20035;-74
2021/03/13 09:47:40;;;;;;;11.52;6.55;;;5.30;54.20;;;;;;5054952;28;20063;-73
2021/03/13 09:50:13;;;;;;;16.83;7.57;;;5.40;54.10;;;;;;5038346;28;20159;-75
2021/03/13 09:52:41;;;;;;;9.70;6.30;;;5.40;53.90;;;;;;5056285;28;20087;-74
2021/03/13 09:55:12;;;;;;;7.95;4.93;;;5.40;53.60;;;;;;5038553;28;20086;-74
2021/03/13 09:57:42;;;;;;;6.20;4.60;;;5.40;53.20;;;;;;5056617;28;20029;-72
2021/03/13 10:00:29;;;;;;;7.32;5.45;;;5.30;53.60;;;;;;5056281;28;20029;-76
2021/03/13 10:02:58;;;;;;;8.90;5.40;;;5.20;54.00;;;;;;5055648;28;20144;-77
2021/03/13 10:05:29;;;;;;;9.88;5.00;;;5.20;54.10;;;;;;5056134;28;20191;-76
2021/03/13 10:07:56;;;;;;;7.45;4.88;;;5.20;54.60;;;;;;5039389;28;20045;-76
2021/03/13 10:10:26;;;;;;;7.75;5.00;;;5.30;54.90;;;;;;5055909;28;20067;-75
2021/03/13 10:13:00;;;;;;;8.90;5.47;;;5.20;55.40;;;;;;5054580;28;20021;-76
2021/03/13 10:15:26;;;;;;;9.13;5.93;;;5.30;55.20;;;;;;5088191;28;20150;-76
2021/03/13 10:18:01;;;;;;;9.82;5.25;;;5.40;55.20;;;;;;5055473;28;20029;-76
2021/03/13 10:20:36;;;;;;;7.13;4.97;;;5.40;55.30;;;;;;5055982;28;20013;-76
2021/03/13 10:23:14;;;;;;;8.10;4.97;;;5.50;55.20;;;;;;5056362;28;20370;-76
2021/03/13 10:25:56;;;;;;;7.15;5.00;;;5.50;55.20;;;;;;5055411;28;20120;-75
2021/03/13 10:28:49;;;;;;;10.57;5.03;;;5.60;55.20;;;;;;5087948;28;20033;-75
2021/03/13 10:31:19;;;;;;;10.10;5.35;;;5.60;55.30;;;;;;5048697;28;20041;-75
2021/03/13 10:33:46;;;;;;;9.90;4.85;;;5.60;55.50;;;;;;5055541;28;20060;-75
2021/03/13 10:36:14;;;;;;;9.48;5.20;;;5.60;55.10;;;;;;5055057;28;20044;-76
2021/03/13 10:38:50;;;;;;;9.70;5.63;;;5.60;55.00;;;;;;5055257;28;20025;-75
2021/03/13 10:41:20;;;;;;;11.65;5.40;;;5.60;55.00;;;;;;5055583;28;20517;-76
2021/03/13 10:43:47;;;;;;;6.90;4.63;;;5.60;55.00;;;;;;5055416;28;20040;-76
2021/03/13 10:46:19;;;;;;;6.80;4.90;;;5.60;55.00;;;;;;5055132;28;20059;-76
2021/03/13 10:48:54;;;;;;;9.13;5.88;;;5.60;54.90;;;;;;5055223;28;20033;-75
2021/03/13 11:06:00;;;;;;;6.10;4.97;;;5.70;54.40;;;;;;5109580;27;20375;-74
2021/03/13 11:08:28;;;;;;;7.50;5.63;;;6.10;54.80;;;;;;5109676;28;20064;-74
2021/03/13 11:10:56;;;;;;;7.55;5.43;;;6.10;54.70;;;;;;5091440;28;20127;-75
2021/03/13 11:13:23;;;;;;;9.57;6.32;;;6.10;54.60;;;;;;5091789;28;20078;-75
2021/03/13 11:15:49;;;;;;;9.18;5.85;;;6.00;54.40;;;;;;5109910;28;20039;-75
2021/03/13 11:18:16;;;;;;;9.48;5.35;;;6.10;54.40;;;;;;5109951;28;20058;-76
2021/03/13 11:20:43;;;;;;;10.43;6.43;;;6.00;54.30;;;;;;5091537;28;20114;-74
2021/03/13 11:23:09;;;;;;;9.48;6.22;;;6.00;55.00;;;;;;5109973;28;20626;-73
2021/03/13 11:25:35;;;;;;;9.27;6.28;;;6.00;54.60;;;;;;5109518;28;20031;-72
2021/03/13 11:28:05;;;;;;;9.65;6.25;;;6.10;54.80;;;;;;5109832;28;20032;-73
2021/03/13 11:30:32;;;;;;;12.57;6.80;;;6.10;54.90;;;;;;5109739;28;20039;-71
2021/03/13 11:32:58;;;;;;;13.90;7.38;;;6.10;54.80;;;;;;5091397;28;20023;-70
2021/03/13 11:35:24;;;;;;;9.52;6.40;;;6.00;54.60;;;;;;5109633;28;20481;-73
2021/03/13 11:37:51;;;;;;;9.68;6.13;;;6.00;54.30;;;;;;5109673;28;20382;-70
2021/03/13 11:40:19;;;;;;;8.50;6.18;;;6.00;54.20;;;;;;5109251;28;20382;-78
2021/03/13 11:42:46;;;;;;;12.73;6.78;;;6.00;54.10;;;;;;5091715;28;20113;-79
2021/03/13 11:45:14;;;;;;;10.35;7.13;;;6.00;54.00;;;;;;5109876;28;20070;-80
2021/03/13 11:47:40;;;;;;;10.18;6.80;;;6.00;53.90;;;;;;5109614;28;20127;-79
2021/03/13 11:50:09;;;;;;;11.63;7.03;;;6.00;53.70;;;;;;5109319;28;20040;-80
2021/03/13 11:52:36;;;;;;;8.77;6.47;;;6.00;53.50;;;;;;5109621;28;20039;-79
2021/03/13 11:55:04;;;;;;;8.93;6.65;;;5.90;53.30;;;;;;5090930;28;20042;-76
2021/03/13 11:57:30;;;;;;;12.27;6.70;;;5.90;53.20;;;;;;5074500;28;20486;-77
2021/03/13 11:59:56;;;;;;;8.68;5.90;;;5.90;53.20;;;;;;5109608;28;20128;-80
2021/03/13 12:02:22;;;;;;;10.73;6.30;;;5.90;53.00;;;;;;5109495;28;20039;-79
2021/03/13 12:04:48;;;;;;;9.43;5.97;;;5.90;53.00;;;;;;5107835;28;20069;-86
2021/03/13 12:07:15;;;;;;;11.93;6.32;;;5.90;52.80;;;;;;5095248;28;20031;-85
2021/03/13 12:09:41;;;;;;;11.48;8.05;;;5.80;52.70;;;;;;5095393;28;20405;-83
2021/03/13 12:12:10;;;;;;;9.68;6.53;;;5.80;52.70;;;;;;5077466;28;20035;-81
2021/03/13 12:14:37;;;;;;;10.38;6.43;;;5.80;52.70;;;;;;5095495;28;20039;-84
2021/03/13 12:17:03;;;;;;;10.75;7.13;;;5.80;52.70;;;;;;5095458;28;20032;-83
2021/03/13 12:19:30;;;;;;;11.85;7.20;;;5.80;52.70;;;;;;5077224;28;20123;-77
2021/03/13 12:21:57;;;;;;;11.70;7.18;;;5.80;52.60;;;;;;5095138;28;20032;-82
2021/03/13 12:24:23;;;;;;;10.68;7.63;;;5.80;52.60;;;;;;5095506;28;20116;-79
2021/03/13 12:26:49;;;;;;;10.13;7.72;;;5.80;52.60;;;;;;5095705;28;20126;-79
2021/03/13 12:29:15;;;;;;;13.80;7.68;;;5.80;52.50;;;;;;5077486;28;20040;-79
2021/03/13 12:31:41;;;;;;;10.57;7.22;;;5.70;52.40;;;;;;5095278;28;20032;-81
2021/03/13 12:34:07;;;;;;;9.63;7.00;;;5.70;52.40;;;;;;5095204;28;20032;-82
2021/03/13 12:36:34;;;;;;;10.85;7.15;;;5.70;52.40;;;;;;5095240;28;20042;-82
2021/03/13 12:38:59;;;;;;;9.00;6.85;;;5.70;52.40;;;;;;5095177;28;20093;-78
2021/03/13 12:41:25;;;;;;;11.02;6.97;;;5.70;52.40;;;;;;5095275;28;20043;-80
2021/03/13 12:43:51;;;;;;;8.63;6.63;;;5.70;52.40;;;;;;5095239;28;20036;-78
2021/03/13 12:46:18;;;;;;;9.98;6.55;;;5.70;52.40;;;;;;5095160;28;20443;-79
2021/03/13 12:48:48;;;;;;;8.93;6.85;;;5.60;52.40;;;;;;5095012;28;20497;-78
2021/03/13 12:51:17;;;;;;;10.35;7.22;;;5.60;52.30;;;;;;5095156;28;20512;-80
2021/03/13 12:53:44;;;;;;;10.88;7.85;;;5.60;52.20;;;;;;5095052;28;20032;-78
2021/03/13 12:56:10;;;;;;;12.25;8.25;;;5.60;52.30;;;;;;5095074;28;20048;-77
2021/03/13 12:58:36;;;;;;;11.70;8.02;;;5.60;52.40;;;;;;5094831;28;20032;-78
2021/03/13 13:01:04;;;;;;;10.38;7.78;;;5.50;52.40;;;;;;5094779;28;20115;-78
2021/03/13 13:03:30;;;;;;;11.98;8.52;;;5.50;52.40;;;;;;5076950;28;20039;-77
2021/03/13 13:05:56;;;;;;;10.43;7.53;;;5.40;52.20;;;;;;5076177;28;20059;-76
2021/03/13 13:08:22;;;;;;;14.75;8.23;;;5.50;52.20;;;;;;5094964;28;20067;-76
2021/03/13 13:10:48;;;;;;;11.20;7.80;;;5.40;52.10;;;;;;5094683;28;20028;-77
2021/03/13 13:13:19;;;;;;;12.50;8.00;;;5.40;52.00;;;;;;5094426;28;20028;-77
2021/03/13 13:15:51;;;;;;;11.20;8.63;;;5.40;52.10;;;;;;5076485;28;20102;-76
2021/03/13 13:18:21;;;;;;;9.65;8.10;;;5.40;52.10;;;;;;5093688;28;20530;-77
2021/03/13 13:20:47;;;;;;;12.40;8.68;;;5.40;52.20;;;;;;5093928;28;20028;-79
2021/03/13 13:23:14;;;;;;;11.38;7.95;;;5.40;52.10;;;;;;5095114;28;20067;-78
2021/03/13 13:25:41;;;;;;;12.10;8.80;;;5.40;52.10;;;;;;5094754;28;20618;-81